Alle Lego sets met een set nummer van 41000 tot 42000

Sorteer op
Titel van setPrijsVerschilToegevoegd
Plezier op het water (41000)€ 5,49- € 0,50 (8%)2012-12-17
Mia's Magic Tricks (41001)€ 9,50- € 0,49 (5%)2012-12-17
Emma's Karate Class (41002)€ 9,50- € 0,49 (5%)2012-12-17
Olivia's veulentje (41003)€ 9,50- € 0,49 (5%)2012-12-17
Oefenzaal (41004)€ 24,95+ € 4,96 (25%)2012-12-17
Heartlake zwembad (41008)€ 42,50+ € 2,51 (6%)2012-12-17
Andrea’s slaapkamer (41009)€ 11,00- € 0,47 (4%)2013-07-31
Olivia’s strandbuggy (41010)€ 9,50- € 1,97 (17%)2013-07-31
Stephanie's Soccer Practice (41011)€ 9,50- € 0,49 (5%)2012-12-17
Squirrel's Tree House (41017)€ 2,95- € 1,04 (26%)2012-12-17
Cat's Playground (41018)€ 2,95- € 1,04 (26%)2012-12-17
Turtle's Little Oasis (41019)€ 2,95- € 1,04 (26%)2012-12-17
Hedgehog's Hideaway (41020)€ 3,25- € 0,74 (19%)2013-05-01
Poodle's Little Palace (41021)€ 3,25- € 0,74 (19%)2013-05-01
Het hok van Konijn (41022)€ 3,25- € 0,74 (19%)2013-05-01
Sunshine Oogst (41026)€ 16,95- € 3,04 (15%)2013-12-27
Stephanie's lammetje (41029)€ 7,95- € 2,04 (20%)2013-12-27
Olivia's IJskraam (41030)€ 11,50+ € 1,51 (15%)2014-05-31
Eerste Hulp Junglebike (41032)€ 10,71- € 4,28 (29%)2014-05-31
Junglewaterval reddingsactie (41033)€ 16,95- € 3,04 (15%)2014-05-31
Heartlake Juicebar (41035)€ 27,95- € 5,04 (15%)2013-12-27
Sunshine Ranch (41039)€ 79,50- € 0,49 (1%)2013-12-27
LEGO® Friends Adventkalender (41040)€ 19,95- € 5,04 (20%)2014-09-02
Het paradijsje van Schildpad (41041)€ 3,25- € 1,24 (28%)2013-12-27
De tempel van Tijger (41042)€ 3,25- € 1,24 (28%)2013-12-27
De fontein van Papegaai (41044)€ 3,25- € 1,24 (28%)2014-05-14
De bananenboom van Orang-oetan (41045)€ 3,25- € 1,24 (28%)2014-05-14
De rivier van Bruine Beer (41046)€ 3,25- € 1,24 (28%)2014-05-14
Zeehondenrots (41047)€ 3,25- € 1,24 (28%)2014-09-02
Leeuwenwelp savanne (41048)€ 3,25- € 1,24 (28%)2014-09-02
Ariëls magische kus (41052)€ 37,50+ € 4,51 (14%)2014-03-01
Heartlake satellietwagen (41056)€ 29,50+ € 2,51 (9%)2013-12-27
Heartlake winkelcentrum (41058)€ 89,95- € 20,04 (18%)2014-05-31
Jasmines exotische paleis (41061)€ 26,99--2014-12-23
Elsa's fonkelende ijskasteel (41062)€ 31,99- € 13,00 (29%)2014-12-23
Ariëls onderzeese paleis (41063)€ 57,85- € 7,14 (11%)2014-12-23
Rapunzels allermooiste dag (41065)€ 21,95- € 8,04 (27%)2016-05-26
Slee-avontuur met Anna & Kristoff (41066)€ 21,18- € 13,81 (39%)2015-12-04
Belle's betoverde kasteel (41067)€ 39,99- € 20,00 (33%)2016-05-26
Het kasteelfeest in Arendelle (41068)€ 39,43- € 30,56 (44%)2015-12-04
Een dag bij het zwembad met Treasure (41069)€ 5,61- € 4,38 (44%)2015-12-15
Aira's werkplaats (41071)€ 9,99--2015-03-01
Naida's avonturenschip (41073)€ 23,99- € 9,00 (27%)2015-03-01
De Treetop Hideaway van de Elfen (41075)€ 44,95- € 10,04 (18%)2015-03-01
Aira’s Pegasus slee (41077)€ 34,95- € 10,04 (22%)2015-06-01
Skyra’s Mysterieuze Luchtkasteel (41078)€ 79,95- € 15,04 (16%)2015-06-01
Stephanie’s pizzeria (41092)€ 9,95- € 0,04 (0%)2014-12-25
Heartlake Kapsalon (41093)€ 26,39- € 6,60 (20%)2014-12-25
Heartlake vuurtoren (41094)€ 33,71- € 11,28 (25%)2014-12-25
Emma's huis (41095)€ 59,95- € 15,04 (20%)2014-12-25
Heartlake luchtballon (41097)€ 21,72- € 11,27 (34%)2014-12-25
Andrea’s Toeristenkiosk (41098)€ 7,49- € 2,50 (25%)2015-06-01
Heartlake Skate Park (41099)€ 14,96- € 5,03 (25%)2015-06-01
Heartlake Privéjet (41100)€ 21,00- € 5,99 (22%)2015-06-01
Heartlake Grand Hotel (41101)€ 89,04- € 50,95 (36%)2015-06-01
LEGO® Friends Adventkalender (41102)€ 19,95- € 5,04 (20%)2015-09-01
Popster Opnamestudio (41103)€ 12,49- € 2,50 (17%)2015-06-01
Popster Kleedkamer (41104)€ 29,95- € 4,94 (14%)2015-06-01
Popster Podium (41105)€ 39,95- € 8,90 (18%)2015-06-01
Popster Toerbus (41106)€ 40,00- € 24,99 (38%)2015-06-01
Popster Limousine (41107)€ 29,95+ € 2,96 (11%)2015-06-01
Heartlake Supermarkt (41108)€ 33,71- € 11,28 (25%)2015-06-01
Heartlake Vliegveld (41109)€ 84,95- € 15,04 (15%)2015-06-01
Verjaardagsfeest (41110)€ 15,95- € 4,04 (20%)2015-12-15
Feesttrein (41111)€ 7,95- € 2,04 (20%)2015-12-15
Feesttaartjes (41112)€ 3,99- € 2,00 (33%)2015-12-15
Cadeauwinkel (41113)€ 3,38- € 2,61 (44%)2015-12-15
Schoonheidssalon (41114)€ 3,99- € 2,00 (33%)2015-12-15
Emma's atelier (41115)€ 7,95- € 2,04 (20%)2015-12-19
Olivia's onderzoeksvoertuig (41116)€ 11,99- € 6,00 (33%)2015-12-19
Popster tv-studio (41117)€ 15,02- € 4,97 (25%)2015-12-19
Heartlake supermarkt (41118)€ 26,36- € 8,63 (25%)2015-12-19
Heartlake cupcake café (41119)€ 29,98- € 15,01 (33%)2015-12-19
Avonturenkamp boogschieten (41120)€ 7,50- € 2,49 (25%)2015-12-15
Avonturenkamp wildwatervaren (41121)€ 21,30- € 13,69 (39%)2015-12-15
Avonturenkamp boomhuis (41122)€ 47,45- € 32,54 (41%)2015-12-15
Veulen wasplaats (41123)€ 7,09- € 2,90 (29%)2016-05-29
Heartlake puppy dagverblijf (41124)€ 20,41- € 14,58 (42%)2016-05-27
Paardendokter trailer (41125)€ 31,99- € 8,00 (20%)2016-05-27
Heartlake paardrijclub (41126)€ 42,64- € 27,35 (39%)2016-05-27
Pretpark spelletjeshal (41127)€ 11,99- € 6,00 (33%)2016-05-27
Pretpark ruimtevlucht (41128)€ 14,67- € 5,32 (27%)2016-05-27
Pretpark hotdog-wagen (41129)€ 19,99- € 10,00 (33%)2016-05-27
Pretpark achtbaan (41130)€ 74,99- € 25,00 (25%)2016-05-27
LEGO® Friends adventkalender (41131)€ 16,74- € 8,25 (33%)2016-08-31
Heartlake feestwinkel (41132)€ 34,99--2016-05-29
Pretpark botsauto's (41133)€ 29,96- € 15,03 (33%)2016-05-29
Heartlake Theaterschool (41134)€ 89,99--2016-05-29
Livi's popsterrenhuis (41135)€ 44,00- € 15,99 (27%)2015-12-15
Daisy's schoonheidssalon (41140)€ 6,22- € 5,77 (48%)2015-12-15
Pumpkins koninklijke koets (41141)€ 7,43- € 4,56 (38%)2015-12-15
Palace Pets koninklijk kasteel (41142)€ 15,95- € 4,04 (20%)2015-12-19
Laagste ooitVaiana's oceaanreis (41150)€ 44,99--2016-12-01
Emily Jones & de baby winddraak (41171)€ 7,99- € 2,00 (20%)2016-03-01
Het waterdraak avontuur (41172)€ 14,50- € 5,49 (27%)2016-03-01
Elvendale drakenschool (41173)€ 15,25- € 4,74 (24%)2016-03-01
De Starlight herberg (41174)€ 26,50- € 8,49 (24%)2016-03-01
De lavagrot van de vuurdraak (41175)€ 29,89- € 15,10 (34%)2016-03-01
De geheime markt (41176)€ 44,87- € 25,12 (36%)2016-03-01
De kostbare kristalmijn (41177)€ 18,99- € 11,00 (37%)2016-05-26
Het drakenreservaat (41178)€ 45,00- € 14,99 (25%)2016-05-26
Koninginnendraak redding (41179)€ 53,58- € 26,41 (33%)2016-05-26
Ragana's magische schaduwkasteel (41180)€ 59,32- € 40,67 (41%)2016-05-26
Laagste ooitHeartlake pakjesdienst (41310)€ 17,99- € 2,00 (10%)2016-12-01
Laagste ooitHeartlake pizzeria (41311)€ 26,99- € 3,00 (10%)2016-12-01
Laagste ooitHeartlake sporthal (41312)€ 40,49- € 4,50 (10%)2016-12-01
Laagste ooitHeartlake zwembad (41313)€ 44,99- € 5,00 (10%)2016-12-01
Laagste ooitStephanies huis (41314)€ 67,49- € 7,50 (10%)2016-12-01
FLAIN (41500)€ 15,25+ € 10,26 (206%)2014-03-01
KRADER (41503)€ 9,97+ € 4,98 (100%)2014-03-01
Gox (41536)€ 6,95+ € 1,96 (39%)2015-06-01
Jinky (41537)€ 6,95+ € 2,78 (67%)2015-06-01
Laagste ooitKamzo (41538)€ 3,95- € 0,22 (5%)2015-06-01
Spugg (41542)€ 6,95+ € 2,78 (67%)2015-06-01
Turg (41543)€ 6,95+ € 1,96 (39%)2015-06-01
Tungster (41544)€ 6,95+ € 2,78 (67%)2015-06-01
Kuffs (41554)€ 3,95- € 0,04 (1%)2016-01-31
Busto (41555)€ 3,95- € 0,04 (1%)2016-01-31
Tiketz (41556)€ 3,95- € 0,04 (1%)2016-01-31
Camillot (41557)€ 3,95- € 0,04 (1%)2016-01-31
Mixadel (41558)€ 3,95- € 0,04 (1%)2016-01-31
Paladum (41559)€ 3,95- € 0,04 (1%)2016-01-31
Jamzy (41560)€ 3,95- € 0,04 (1%)2016-01-31
Tapsy (41561)€ 3,95- € 0,04 (1%)2016-01-31
Trumpsy (41562)€ 3,95- € 0,04 (1%)2016-01-31
4x4 Crawler Exclusive Edition (41999)€ 749,99+ € 570,00 (317%)2013-08-01

Ook niet meer leverbare sets laten zien